sensor_id;sensor_type;location;lat;lon;timestamp;P1;durP1;ratioP1;P2;durP2;ratioP2
25938;SDS011;13739;51.172;4.466;2022-09-09T00:00:24;6.65;;;2.70;;
25938;SDS011;13739;51.172;4.466;2022-09-09T00:05:31;8.60;;;2.72;;
25938;SDS011;13739;51.172;4.466;2022-09-09T00:08:19;5.55;;;2.40;;
25938;SDS011;13739;51.172;4.466;2022-09-09T00:10:49;6.28;;;2.00;;
25938;SDS011;13739;51.172;4.466;2022-09-09T00:16:18;5.85;;;1.98;;
25938;SDS011;13739;51.172;4.466;2022-09-09T00:21:36;6.45;;;2.33;;
25938;SDS011;13739;51.172;4.466;2022-09-09T00:26:53;7.82;;;1.98;;
25938;SDS011;13739;51.172;4.466;2022-09-09T00:29:51;3.88;;;1.95;;
25938;SDS011;13739;51.172;4.466;2022-09-09T00:32:39;5.72;;;1.95;;
25938;SDS011;13739;51.172;4.466;2022-09-09T00:35:16;4.78;;;2.20;;
25938;SDS011;13739;51.172;4.466;2022-09-09T00:37:43;5.63;;;2.13;;
25938;SDS011;13739;51.172;4.466;2022-09-09T00:40:31;4.05;;;1.70;;
25938;SDS011;13739;51.172;4.466;2022-09-09T00:48:25;5.82;;;1.95;;
25938;SDS011;13739;51.172;4.466;2022-09-09T01:02:15;7.95;;;2.42;;
25938;SDS011;13739;51.172;4.466;2022-09-09T01:04:57;7.18;;;1.90;;
25938;SDS011;13739;51.172;4.466;2022-09-09T01:07:40;5.50;;;1.90;;
25938;SDS011;13739;51.172;4.466;2022-09-09T01:10:15;6.10;;;1.90;;
25938;SDS011;13739;51.172;4.466;2022-09-09T01:12:53;3.95;;;1.65;;
25938;SDS011;13739;51.172;4.466;2022-09-09T01:15:27;4.50;;;1.98;;
25938;SDS011;13739;51.172;4.466;2022-09-09T01:18:00;7.68;;;2.00;;
25938;SDS011;13739;51.172;4.466;2022-09-09T01:20:53;3.45;;;1.90;;
25938;SDS011;13739;51.172;4.466;2022-09-09T01:23:44;4.07;;;2.00;;
25938;SDS011;13739;51.172;4.466;2022-09-09T01:26:36;5.82;;;2.08;;
25938;SDS011;13739;51.172;4.466;2022-09-09T01:29:09;3.75;;;1.85;;
25938;SDS011;13739;51.172;4.466;2022-09-09T01:34:20;5.13;;;1.73;;
25938;SDS011;13739;51.172;4.466;2022-09-09T01:39:35;5.03;;;1.70;;
25938;SDS011;13739;51.172;4.466;2022-09-09T01:42:02;7.38;;;2.00;;
25938;SDS011;13739;51.172;4.466;2022-09-09T01:44:30;3.70;;;1.67;;
25938;SDS011;13739;51.172;4.466;2022-09-09T01:46:56;5.60;;;1.92;;
25938;SDS011;13739;51.172;4.466;2022-09-09T01:49:21;3.88;;;1.63;;
25938;SDS011;13739;51.172;4.466;2022-09-09T01:51:52;4.95;;;1.95;;
25938;SDS011;13739;51.172;4.466;2022-09-09T01:54:20;8.20;;;2.05;;
25938;SDS011;13739;51.172;4.466;2022-09-09T02:07:53;9.60;;;1.70;;
25938;SDS011;13739;51.172;4.466;2022-09-09T02:10:53;5.55;;;1.80;;
25938;SDS011;13739;51.172;4.466;2022-09-09T02:13:27;5.38;;;1.50;;
25938;SDS011;13739;51.172;4.466;2022-09-09T02:18:29;5.18;;;1.67;;
25938;SDS011;13739;51.172;4.466;2022-09-09T02:20:59;5.53;;;1.73;;
25938;SDS011;13739;51.172;4.466;2022-09-09T02:23:27;4.20;;;1.52;;
25938;SDS011;13739;51.172;4.466;2022-09-09T02:25:55;4.03;;;1.88;;
25938;SDS011;13739;51.172;4.466;2022-09-09T02:28:23;2.47;;;1.55;;
25938;SDS011;13739;51.172;4.466;2022-09-09T02:30:52;4.78;;;1.50;;
25938;SDS011;13739;51.172;4.466;2022-09-09T02:33:20;5.53;;;1.58;;
25938;SDS011;13739;51.172;4.466;2022-09-09T02:35:49;5.00;;;1.83;;
25938;SDS011;13739;51.172;4.466;2022-09-09T02:38:17;3.25;;;1.50;;
25938;SDS011;13739;51.172;4.466;2022-09-09T02:40:45;3.97;;;1.83;;
25938;SDS011;13739;51.172;4.466;2022-09-09T02:43:11;2.00;;;1.15;;
25938;SDS011;13739;51.172;4.466;2022-09-09T02:45:42;5.25;;;1.58;;
25938;SDS011;13739;51.172;4.466;2022-09-09T02:48:26;2.53;;;1.47;;
25938;SDS011;13739;51.172;4.466;2022-09-09T02:53:52;3.40;;;1.40;;
25938;SDS011;13739;51.172;4.466;2022-09-09T02:56:40;4.03;;;1.42;;
25938;SDS011;13739;51.172;4.466;2022-09-09T02:59:11;2.40;;;1.10;;
25938;SDS011;13739;51.172;4.466;2022-09-09T03:01:36;6.10;;;1.77;;
25938;SDS011;13739;51.172;4.466;2022-09-09T03:04:05;3.05;;;1.60;;
25938;SDS011;13739;51.172;4.466;2022-09-09T03:06:30;6.05;;;2.15;;
25938;SDS011;13739;51.172;4.466;2022-09-09T03:08:56;5.43;;;2.05;;
25938;SDS011;13739;51.172;4.466;2022-09-09T03:11:25;4.40;;;2.10;;
25938;SDS011;13739;51.172;4.466;2022-09-09T03:13:52;3.55;;;2.17;;
25938;SDS011;13739;51.172;4.466;2022-09-09T03:16:20;6.80;;;2.67;;
25938;SDS011;13739;51.172;4.466;2022-09-09T03:18:49;5.80;;;2.47;;
25938;SDS011;13739;51.172;4.466;2022-09-09T03:21:15;7.57;;;2.92;;
25938;SDS011;13739;51.172;4.466;2022-09-09T03:23:40;5.03;;;2.25;;
25938;SDS011;13739;51.172;4.466;2022-09-09T03:26:07;7.15;;;2.50;;
25938;SDS011;13739;51.172;4.466;2022-09-09T03:28:33;4.55;;;2.35;;
25938;SDS011;13739;51.172;4.466;2022-09-09T03:31:03;4.68;;;2.40;;
25938;SDS011;13739;51.172;4.466;2022-09-09T03:33:29;4.88;;;2.30;;
25938;SDS011;13739;51.172;4.466;2022-09-09T03:35:56;5.03;;;2.08;;
25938;SDS011;13739;51.172;4.466;2022-09-09T03:38:25;5.13;;;2.40;;
25938;SDS011;13739;51.172;4.466;2022-09-09T03:40:52;4.57;;;2.13;;
25938;SDS011;13739;51.172;4.466;2022-09-09T03:43:25;4.82;;;2.13;;
25938;SDS011;13739;51.172;4.466;2022-09-09T03:45:51;8.15;;;2.25;;
25938;SDS011;13739;51.172;4.466;2022-09-09T03:48:18;6.10;;;2.00;;
25938;SDS011;13739;51.172;4.466;2022-09-09T03:50:47;10.18;;;1.98;;
25938;SDS011;13739;51.172;4.466;2022-09-09T03:53:16;7.03;;;2.00;;
25938;SDS011;13739;51.172;4.466;2022-09-09T03:55:46;7.60;;;1.88;;
25938;SDS011;13739;51.172;4.466;2022-09-09T03:58:15;7.47;;;2.83;;
25938;SDS011;13739;51.172;4.466;2022-09-09T04:00:43;6.90;;;1.73;;
25938;SDS011;13739;51.172;4.466;2022-09-09T04:03:19;7.03;;;1.92;;
25938;SDS011;13739;51.172;4.466;2022-09-09T04:05:45;9.85;;;1.75;;
25938;SDS011;13739;51.172;4.466;2022-09-09T04:08:14;5.60;;;1.42;;
25938;SDS011;13739;51.172;4.466;2022-09-09T04:10:39;4.78;;;1.45;;
25938;SDS011;13739;51.172;4.466;2022-09-09T04:13:05;8.00;;;1.77;;
25938;SDS011;13739;51.172;4.466;2022-09-09T04:15:31;4.03;;;1.55;;
25938;SDS011;13739;51.172;4.466;2022-09-09T04:17:57;8.05;;;1.98;;
25938;SDS011;13739;51.172;4.466;2022-09-09T04:20:23;8.88;;;1.92;;
25938;SDS011;13739;51.172;4.466;2022-09-09T04:22:49;6.25;;;1.80;;
25938;SDS011;13739;51.172;4.466;2022-09-09T04:25:14;7.03;;;1.83;;
25938;SDS011;13739;51.172;4.466;2022-09-09T04:27:40;4.90;;;1.45;;
25938;SDS011;13739;51.172;4.466;2022-09-09T04:30:06;6.13;;;1.70;;
25938;SDS011;13739;51.172;4.466;2022-09-09T04:32:35;15.40;;;2.20;;
25938;SDS011;13739;51.172;4.466;2022-09-09T04:35:02;6.20;;;1.77;;
25938;SDS011;13739;51.172;4.466;2022-09-09T04:37:28;8.25;;;1.50;;
25938;SDS011;13739;51.172;4.466;2022-09-09T04:39:53;3.53;;;1.55;;
25938;SDS011;13739;51.172;4.466;2022-09-09T04:42:19;5.93;;;1.70;;
25938;SDS011;13739;51.172;4.466;2022-09-09T04:44:45;6.88;;;1.40;;
25938;SDS011;13739;51.172;4.466;2022-09-09T04:47:10;6.95;;;2.20;;
25938;SDS011;13739;51.172;4.466;2022-09-09T04:49:36;10.05;;;2.28;;
25938;SDS011;13739;51.172;4.466;2022-09-09T04:52:03;7.25;;;1.88;;
25938;SDS011;13739;51.172;4.466;2022-09-09T04:54:29;11.80;;;2.15;;
25938;SDS011;13739;51.172;4.466;2022-09-09T04:56:55;4.07;;;1.40;;
25938;SDS011;13739;51.172;4.466;2022-09-09T04:59:21;5.43;;;1.30;;
25938;SDS011;13739;51.172;4.466;2022-09-09T05:01:47;7.43;;;1.63;;
25938;SDS011;13739;51.172;4.466;2022-09-09T05:04:14;5.90;;;1.40;;
25938;SDS011;13739;51.172;4.466;2022-09-09T05:06:41;11.73;;;1.80;;
25938;SDS011;13739;51.172;4.466;2022-09-09T05:09:07;9.45;;;2.08;;
25938;SDS011;13739;51.172;4.466;2022-09-09T05:11:33;12.52;;;1.67;;
25938;SDS011;13739;51.172;4.466;2022-09-09T05:14:01;8.18;;;2.00;;
25938;SDS011;13739;51.172;4.466;2022-09-09T05:16:28;6.85;;;1.77;;
25938;SDS011;13739;51.172;4.466;2022-09-09T05:18:53;7.80;;;1.83;;
25938;SDS011;13739;51.172;4.466;2022-09-09T05:21:19;5.25;;;1.75;;
25938;SDS011;13739;51.172;4.466;2022-09-09T05:23:47;9.40;;;1.95;;
25938;SDS011;13739;51.172;4.466;2022-09-09T05:26:18;12.20;;;2.15;;
25938;SDS011;13739;51.172;4.466;2022-09-09T05:28:45;7.00;;;1.80;;
25938;SDS011;13739;51.172;4.466;2022-09-09T05:31:11;12.00;;;2.00;;
25938;SDS011;13739;51.172;4.466;2022-09-09T05:33:38;11.05;;;1.60;;
25938;SDS011;13739;51.172;4.466;2022-09-09T05:36:14;7.90;;;1.80;;
25938;SDS011;13739;51.172;4.466;2022-09-09T05:38:42;9.85;;;2.25;;
25938;SDS011;13739;51.172;4.466;2022-09-09T05:41:09;9.38;;;1.90;;
25938;SDS011;13739;51.172;4.466;2022-09-09T05:43:40;7.32;;;1.55;;
25938;SDS011;13739;51.172;4.466;2022-09-09T05:46:10;7.68;;;2.03;;
25938;SDS011;13739;51.172;4.466;2022-09-09T05:48:37;6.65;;;1.70;;
25938;SDS011;13739;51.172;4.466;2022-09-09T05:51:11;7.63;;;1.63;;
25938;SDS011;13739;51.172;4.466;2022-09-09T05:53:40;7.25;;;2.60;;
25938;SDS011;13739;51.172;4.466;2022-09-09T05:56:16;6.07;;;2.10;;
25938;SDS011;13739;51.172;4.466;2022-09-09T05:58:44;11.85;;;2.03;;
25938;SDS011;13739;51.172;4.466;2022-09-09T06:01:15;6.18;;;1.77;;
25938;SDS011;13739;51.172;4.466;2022-09-09T06:03:47;9.00;;;2.30;;
25938;SDS011;13739;51.172;4.466;2022-09-09T06:06:14;5.97;;;2.15;;
25938;SDS011;13739;51.172;4.466;2022-09-09T06:08:43;8.80;;;1.38;;
25938;SDS011;13739;51.172;4.466;2022-09-09T06:13:38;10.23;;;2.30;;
25938;SDS011;13739;51.172;4.466;2022-09-09T06:16:16;8.52;;;1.77;;
25938;SDS011;13739;51.172;4.466;2022-09-09T06:18:43;4.18;;;1.80;;
25938;SDS011;13739;51.172;4.466;2022-09-09T06:21:17;12.48;;;2.20;;
25938;SDS011;13739;51.172;4.466;2022-09-09T06:23:45;5.47;;;1.70;;
25938;SDS011;13739;51.172;4.466;2022-09-09T06:26:13;4.43;;;1.70;;
25938;SDS011;13739;51.172;4.466;2022-09-09T06:28:41;7.90;;;2.25;;
25938;SDS011;13739;51.172;4.466;2022-09-09T06:31:10;9.00;;;1.90;;
25938;SDS011;13739;51.172;4.466;2022-09-09T06:33:38;8.35;;;2.60;;
25938;SDS011;13739;51.172;4.466;2022-09-09T06:36:06;6.78;;;2.28;;
25938;SDS011;13739;51.172;4.466;2022-09-09T06:38:35;5.75;;;1.80;;
25938;SDS011;13739;51.172;4.466;2022-09-09T06:41:00;8.27;;;1.85;;
25938;SDS011;13739;51.172;4.466;2022-09-09T06:43:27;8.35;;;1.60;;
25938;SDS011;13739;51.172;4.466;2022-09-09T06:45:54;7.50;;;1.60;;
25938;SDS011;13739;51.172;4.466;2022-09-09T06:48:20;9.07;;;2.53;;
25938;SDS011;13739;51.172;4.466;2022-09-09T06:50:46;6.15;;;1.73;;
25938;SDS011;13739;51.172;4.466;2022-09-09T06:53:12;3.60;;;1.40;;
25938;SDS011;13739;51.172;4.466;2022-09-09T06:55:41;6.78;;;1.58;;
25938;SDS011;13739;51.172;4.466;2022-09-09T06:58:09;3.95;;;1.50;;
25938;SDS011;13739;51.172;4.466;2022-09-09T07:00:34;5.35;;;1.92;;
25938;SDS011;13739;51.172;4.466;2022-09-09T07:03:02;8.40;;;2.03;;
25938;SDS011;13739;51.172;4.466;2022-09-09T07:05:28;11.48;;;2.00;;
25938;SDS011;13739;51.172;4.466;2022-09-09T07:07:54;5.63;;;1.48;;
25938;SDS011;13739;51.172;4.466;2022-09-09T07:10:19;6.53;;;1.55;;
25938;SDS011;13739;51.172;4.466;2022-09-09T07:12:49;8.40;;;1.65;;
25938;SDS011;13739;51.172;4.466;2022-09-09T07:15:17;13.50;;;1.90;;
25938;SDS011;13739;51.172;4.466;2022-09-09T07:17:43;6.30;;;1.85;;
25938;SDS011;13739;51.172;4.466;2022-09-09T07:20:09;6.70;;;1.67;;
25938;SDS011;13739;51.172;4.466;2022-09-09T07:22:35;6.55;;;1.65;;
25938;SDS011;13739;51.172;4.466;2022-09-09T07:25:01;10.32;;;1.80;;
25938;SDS011;13739;51.172;4.466;2022-09-09T07:27:27;9.45;;;2.05;;
25938;SDS011;13739;51.172;4.466;2022-09-09T07:29:52;7.38;;;2.13;;
25938;SDS011;13739;51.172;4.466;2022-09-09T07:32:19;8.23;;;2.17;;
25938;SDS011;13739;51.172;4.466;2022-09-09T07:34:45;4.93;;;1.80;;
25938;SDS011;13739;51.172;4.466;2022-09-09T07:37:12;8.23;;;1.83;;
25938;SDS011;13739;51.172;4.466;2022-09-09T07:39:38;3.22;;;1.30;;
25938;SDS011;13739;51.172;4.466;2022-09-09T07:42:04;7.63;;;1.70;;
25938;SDS011;13739;51.172;4.466;2022-09-09T07:44:30;6.75;;;1.60;;
25938;SDS011;13739;51.172;4.466;2022-09-09T07:46:59;3.83;;;1.52;;
25938;SDS011;13739;51.172;4.466;2022-09-09T07:49:26;5.88;;;1.35;;
25938;SDS011;13739;51.172;4.466;2022-09-09T07:51:51;9.05;;;1.95;;
25938;SDS011;13739;51.172;4.466;2022-09-09T07:54:18;10.43;;;1.70;;
25938;SDS011;13739;51.172;4.466;2022-09-09T07:56:48;8.15;;;1.50;;
25938;SDS011;13739;51.172;4.466;2022-09-09T07:59:15;7.80;;;1.55;;
25938;SDS011;13739;51.172;4.466;2022-09-09T08:01:42;6.53;;;1.48;;
25938;SDS011;13739;51.172;4.466;2022-09-09T08:04:11;6.10;;;2.08;;
25938;SDS011;13739;51.172;4.466;2022-09-09T08:06:52;9.63;;;1.55;;
25938;SDS011;13739;51.172;4.466;2022-09-09T08:09:22;10.32;;;1.83;;
25938;SDS011;13739;51.172;4.466;2022-09-09T08:11:51;4.05;;;1.50;;
25938;SDS011;13739;51.172;4.466;2022-09-09T08:14:17;6.80;;;1.40;;
25938;SDS011;13739;51.172;4.466;2022-09-09T08:16:44;5.63;;;1.50;;
25938;SDS011;13739;51.172;4.466;2022-09-09T08:19:11;4.90;;;1.50;;
25938;SDS011;13739;51.172;4.466;2022-09-09T08:21:38;4.78;;;1.38;;
25938;SDS011;13739;51.172;4.466;2022-09-09T08:24:05;5.60;;;1.88;;
25938;SDS011;13739;51.172;4.466;2022-09-09T08:26:41;6.03;;;1.30;;
25938;SDS011;13739;51.172;4.466;2022-09-09T08:29:09;5.38;;;1.40;;
25938;SDS011;13739;51.172;4.466;2022-09-09T08:31:36;5.13;;;1.70;;
25938;SDS011;13739;51.172;4.466;2022-09-09T08:34:03;7.88;;;1.65;;
25938;SDS011;13739;51.172;4.466;2022-09-09T08:36:31;6.07;;;1.52;;
25938;SDS011;13739;51.172;4.466;2022-09-09T08:38:59;4.32;;;1.60;;
25938;SDS011;13739;51.172;4.466;2022-09-09T08:58:19;9.55;;;1.77;;
25938;SDS011;13739;51.172;4.466;2022-09-09T09:01:02;7.10;;;1.60;;
25938;SDS011;13739;51.172;4.466;2022-09-09T09:06:22;4.28;;;1.45;;
25938;SDS011;13739;51.172;4.466;2022-09-09T09:11:22;7.38;;;1.85;;
25938;SDS011;13739;51.172;4.466;2022-09-09T09:14:07;6.63;;;1.33;;
25938;SDS011;13739;51.172;4.466;2022-09-09T09:16:41;5.60;;;1.58;;
25938;SDS011;13739;51.172;4.466;2022-09-09T09:19:14;11.25;;;2.03;;
25938;SDS011;13739;51.172;4.466;2022-09-09T09:30:20;8.77;;;1.48;;
25938;SDS011;13739;51.172;4.466;2022-09-09T09:35:21;8.60;;;1.88;;
25938;SDS011;13739;51.172;4.466;2022-09-09T09:37:46;9.02;;;1.52;;
25938;SDS011;13739;51.172;4.466;2022-09-09T09:40:14;6.55;;;1.90;;
25938;SDS011;13739;51.172;4.466;2022-09-09T09:42:52;4.55;;;1.77;;
25938;SDS011;13739;51.172;4.466;2022-09-09T09:48:19;5.85;;;1.73;;
25938;SDS011;13739;51.172;4.466;2022-09-09T09:53:34;11.77;;;1.60;;
25938;SDS011;13739;51.172;4.466;2022-09-09T09:56:01;6.57;;;1.80;;
25938;SDS011;13739;51.172;4.466;2022-09-09T09:58:55;6.53;;;1.60;;
25938;SDS011;13739;51.172;4.466;2022-09-09T10:01:21;8.18;;;2.00;;
25938;SDS011;13739;51.172;4.466;2022-09-09T10:03:52;4.93;;;1.60;;
25938;SDS011;13739;51.172;4.466;2022-09-09T10:06:33;6.75;;;1.75;;
25938;SDS011;13739;51.172;4.466;2022-09-09T10:14:22;9.73;;;1.80;;
25938;SDS011;13739;51.172;4.466;2022-09-09T10:22:32;5.20;;;1.30;;
25938;SDS011;13739;51.172;4.466;2022-09-09T10:25:14;6.40;;;1.45;;
25938;SDS011;13739;51.172;4.466;2022-09-09T10:31:01;4.00;;;1.60;;
25938;SDS011;13739;51.172;4.466;2022-09-09T10:36:31;8.40;;;1.33;;
25938;SDS011;13739;51.172;4.466;2022-09-09T10:39:03;5.15;;;1.30;;
25938;SDS011;13739;51.172;4.466;2022-09-09T10:44:23;5.82;;;1.38;;
25938;SDS011;13739;51.172;4.466;2022-09-09T10:50:02;6.07;;;1.17;;
25938;SDS011;13739;51.172;4.466;2022-09-09T10:55:42;4.13;;;1.38;;
25938;SDS011;13739;51.172;4.466;2022-09-09T10:58:12;6.45;;;1.60;;
25938;SDS011;13739;51.172;4.466;2022-09-09T11:00:44;4.30;;;1.50;;
25938;SDS011;13739;51.172;4.466;2022-09-09T11:03:22;5.13;;;1.20;;
25938;SDS011;13739;51.172;4.466;2022-09-09T11:05:52;6.68;;;1.27;;
25938;SDS011;13739;51.172;4.466;2022-09-09T11:08:39;2.95;;;1.17;;
25938;SDS011;13739;51.172;4.466;2022-09-09T11:11:13;1.45;;;0.80;;
25938;SDS011;13739;51.172;4.466;2022-09-09T11:13:54;3.85;;;1.20;;
25938;SDS011;13739;51.172;4.466;2022-09-09T11:18:50;3.45;;;0.95;;
25938;SDS011;13739;51.172;4.466;2022-09-09T11:21:36;6.80;;;1.10;;
25938;SDS011;13739;51.172;4.466;2022-09-09T11:24:15;3.47;;;1.35;;
25938;SDS011;13739;51.172;4.466;2022-09-09T11:26:55;7.38;;;1.50;;
25938;SDS011;13739;51.172;4.466;2022-09-09T11:32:34;5.05;;;1.02;;
25938;SDS011;13739;51.172;4.466;2022-09-09T11:40:45;5.05;;;1.05;;
25938;SDS011;13739;51.172;4.466;2022-09-09T11:43:16;5.10;;;1.30;;
25938;SDS011;13739;51.172;4.466;2022-09-09T11:45:53;4.88;;;1.05;;
25938;SDS011;13739;51.172;4.466;2022-09-09T11:48:33;2.95;;;0.95;;
25938;SDS011;13739;51.172;4.466;2022-09-09T11:53:29;2.83;;;1.00;;
25938;SDS011;13739;51.172;4.466;2022-09-09T11:56:22;4.00;;;0.80;;
25938;SDS011;13739;51.172;4.466;2022-09-09T11:59:02;3.78;;;0.85;;
25938;SDS011;13739;51.172;4.466;2022-09-09T12:01:34;4.05;;;1.00;;
25938;SDS011;13739;51.172;4.466;2022-09-09T12:04:10;4.38;;;1.00;;
25938;SDS011;13739;51.172;4.466;2022-09-09T12:06:44;2.80;;;0.65;;
25938;SDS011;13739;51.172;4.466;2022-09-09T12:09:22;2.28;;;0.73;;
25938;SDS011;13739;51.172;4.466;2022-09-09T12:17:23;3.60;;;0.77;;
25938;SDS011;13739;51.172;4.466;2022-09-09T12:28:15;4.53;;;0.93;;
25938;SDS011;13739;51.172;4.466;2022-09-09T12:33:33;2.88;;;0.82;;
25938;SDS011;13739;51.172;4.466;2022-09-09T12:36:09;3.35;;;1.00;;
25938;SDS011;13739;51.172;4.466;2022-09-09T12:38:39;5.88;;;1.20;;
25938;SDS011;13739;51.172;4.466;2022-09-09T12:41:17;3.95;;;1.20;;
25938;SDS011;13739;51.172;4.466;2022-09-09T12:43:49;3.85;;;1.15;;
25938;SDS011;13739;51.172;4.466;2022-09-09T12:49:05;2.45;;;1.00;;
25938;SDS011;13739;51.172;4.466;2022-09-09T12:51:50;4.90;;;1.00;;
25938;SDS011;13739;51.172;4.466;2022-09-09T12:54:16;2.92;;;0.90;;
25938;SDS011;13739;51.172;4.466;2022-09-09T12:56:44;4.40;;;1.13;;
25938;SDS011;13739;51.172;4.466;2022-09-09T12:59:35;4.07;;;1.20;;
25938;SDS011;13739;51.172;4.466;2022-09-09T13:02:11;3.97;;;0.95;;
25938;SDS011;13739;51.172;4.466;2022-09-09T13:04:48;2.25;;;0.90;;
25938;SDS011;13739;51.172;4.466;2022-09-09T13:07:15;1.77;;;0.90;;
25938;SDS011;13739;51.172;4.466;2022-09-09T13:09:42;3.53;;;1.00;;
25938;SDS011;13739;51.172;4.466;2022-09-09T13:12:18;3.03;;;0.90;;
25938;SDS011;13739;51.172;4.466;2022-09-09T13:14:47;1.42;;;0.90;;
25938;SDS011;13739;51.172;4.466;2022-09-09T13:17:22;2.58;;;1.10;;
25938;SDS011;13739;51.172;4.466;2022-09-09T13:19:51;3.60;;;1.02;;
25938;SDS011;13739;51.172;4.466;2022-09-09T13:22:29;3.92;;;0.95;;
25938;SDS011;13739;51.172;4.466;2022-09-09T13:24:59;5.05;;;0.70;;
25938;SDS011;13739;51.172;4.466;2022-09-09T13:27:51;4.07;;;0.93;;
25938;SDS011;13739;51.172;4.466;2022-09-09T13:30:19;3.83;;;1.27;;
25938;SDS011;13739;51.172;4.466;2022-09-09T13:33:03;3.90;;;1.02;;
25938;SDS011;13739;51.172;4.466;2022-09-09T13:36:12;4.72;;;1.08;;
25938;SDS011;13739;51.172;4.466;2022-09-09T13:38:36;2.28;;;0.77;;
25938;SDS011;13739;51.172;4.466;2022-09-09T13:41:34;2.88;;;0.88;;
25938;SDS011;13739;51.172;4.466;2022-09-09T13:44:01;2.22;;;0.80;;
25938;SDS011;13739;51.172;4.466;2022-09-09T13:51:40;3.75;;;1.48;;
25938;SDS011;13739;51.172;4.466;2022-09-09T13:54:12;2.97;;;1.27;;
25938;SDS011;13739;51.172;4.466;2022-09-09T13:56:40;1.45;;;0.93;;
25938;SDS011;13739;51.172;4.466;2022-09-09T13:59:11;2.17;;;0.75;;
25938;SDS011;13739;51.172;4.466;2022-09-09T14:01:38;1.88;;;0.75;;
25938;SDS011;13739;51.172;4.466;2022-09-09T14:04:04;3.88;;;0.80;;
25938;SDS011;13739;51.172;4.466;2022-09-09T14:06:31;2.85;;;0.70;;
25938;SDS011;13739;51.172;4.466;2022-09-09T14:08:57;3.00;;;0.77;;
25938;SDS011;13739;51.172;4.466;2022-09-09T14:11:23;3.10;;;0.77;;
25938;SDS011;13739;51.172;4.466;2022-09-09T14:13:49;1.00;;;0.80;;
25938;SDS011;13739;51.172;4.466;2022-09-09T14:16:16;2.78;;;1.10;;
25938;SDS011;13739;51.172;4.466;2022-09-09T14:18:42;2.75;;;0.98;;
25938;SDS011;13739;51.172;4.466;2022-09-09T14:21:09;1.88;;;0.77;;
25938;SDS011;13739;51.172;4.466;2022-09-09T14:23:35;1.63;;;0.80;;
25938;SDS011;13739;51.172;4.466;2022-09-09T14:26:00;2.30;;;0.90;;
25938;SDS011;13739;51.172;4.466;2022-09-09T14:28:26;3.33;;;0.80;;
25938;SDS011;13739;51.172;4.466;2022-09-09T14:30:53;1.92;;;0.82;;
25938;SDS011;13739;51.172;4.466;2022-09-09T14:33:19;1.38;;;0.75;;
25938;SDS011;13739;51.172;4.466;2022-09-09T14:35:44;2.95;;;1.15;;
25938;SDS011;13739;51.172;4.466;2022-09-09T14:38:10;2.38;;;1.27;;
25938;SDS011;13739;51.172;4.466;2022-09-09T14:40:36;2.85;;;1.08;;
25938;SDS011;13739;51.172;4.466;2022-09-09T14:43:03;2.28;;;1.08;;
25938;SDS011;13739;51.172;4.466;2022-09-09T14:45:30;3.35;;;0.95;;
25938;SDS011;13739;51.172;4.466;2022-09-09T14:47:56;2.63;;;0.90;;
25938;SDS011;13739;51.172;4.466;2022-09-09T14:50:22;3.25;;;0.90;;
25938;SDS011;13739;51.172;4.466;2022-09-09T14:52:49;3.38;;;0.73;;
25938;SDS011;13739;51.172;4.466;2022-09-09T14:55:15;1.17;;;0.68;;
25938;SDS011;13739;51.172;4.466;2022-09-09T14:57:41;2.10;;;0.80;;
25938;SDS011;13739;51.172;4.466;2022-09-09T15:00:09;4.28;;;0.98;;
25938;SDS011;13739;51.172;4.466;2022-09-09T15:02:36;3.58;;;0.80;;
25938;SDS011;13739;51.172;4.466;2022-09-09T15:05:02;2.95;;;0.90;;
25938;SDS011;13739;51.172;4.466;2022-09-09T15:07:29;1.13;;;0.73;;
25938;SDS011;13739;51.172;4.466;2022-09-09T15:09:57;5.18;;;0.88;;
25938;SDS011;13739;51.172;4.466;2022-09-09T15:12:23;1.65;;;0.75;;
25938;SDS011;13739;51.172;4.466;2022-09-09T15:14:49;3.65;;;1.42;;
25938;SDS011;13739;51.172;4.466;2022-09-09T15:17:15;2.42;;;0.82;;
25938;SDS011;13739;51.172;4.466;2022-09-09T15:19:41;2.38;;;0.68;;
25938;SDS011;13739;51.172;4.466;2022-09-09T15:22:07;1.77;;;0.60;;
25938;SDS011;13739;51.172;4.466;2022-09-09T15:24:33;1.98;;;0.68;;
25938;SDS011;13739;51.172;4.466;2022-09-09T15:27:00;1.48;;;0.68;;
25938;SDS011;13739;51.172;4.466;2022-09-09T15:29:26;4.38;;;1.10;;
25938;SDS011;13739;51.172;4.466;2022-09-09T15:31:55;2.00;;;0.90;;
25938;SDS011;13739;51.172;4.466;2022-09-09T15:34:21;4.47;;;0.90;;
25938;SDS011;13739;51.172;4.466;2022-09-09T15:36:47;2.67;;;0.60;;
25938;SDS011;13739;51.172;4.466;2022-09-09T15:39:16;2.55;;;0.70;;
25938;SDS011;13739;51.172;4.466;2022-09-09T15:41:43;2.38;;;0.70;;
25938;SDS011;13739;51.172;4.466;2022-09-09T15:44:10;3.17;;;0.90;;
25938;SDS011;13739;51.172;4.466;2022-09-09T15:46:41;1.80;;;0.73;;
25938;SDS011;13739;51.172;4.466;2022-09-09T15:51:40;2.40;;;0.90;;
25938;SDS011;13739;51.172;4.466;2022-09-09T15:54:07;3.50;;;0.73;;
25938;SDS011;13739;51.172;4.466;2022-09-09T15:56:34;2.97;;;0.70;;
25938;SDS011;13739;51.172;4.466;2022-09-09T15:59:00;1.95;;;0.70;;
25938;SDS011;13739;51.172;4.466;2022-09-09T16:01:30;2.70;;;0.90;;
25938;SDS011;13739;51.172;4.466;2022-09-09T16:03:57;2.08;;;0.80;;
25938;SDS011;13739;51.172;4.466;2022-09-09T16:06:25;2.67;;;1.00;;
25938;SDS011;13739;51.172;4.466;2022-09-09T16:08:52;2.83;;;0.88;;
25938;SDS011;13739;51.172;4.466;2022-09-09T16:11:20;5.53;;;0.90;;
25938;SDS011;13739;51.172;4.466;2022-09-09T16:13:48;3.22;;;1.13;;
25938;SDS011;13739;51.172;4.466;2022-09-09T16:16:16;1.73;;;1.00;;
25938;SDS011;13739;51.172;4.466;2022-09-09T16:18:52;1.65;;;0.90;;
25938;SDS011;13739;51.172;4.466;2022-09-09T16:21:20;2.58;;;1.00;;
25938;SDS011;13739;51.172;4.466;2022-09-09T16:23:49;2.85;;;1.00;;
25938;SDS011;13739;51.172;4.466;2022-09-09T16:26:18;5.30;;;1.27;;
25938;SDS011;13739;51.172;4.466;2022-09-09T16:28:45;1.48;;;0.93;;
25938;SDS011;13739;51.172;4.466;2022-09-09T16:31:15;2.97;;;1.02;;
25938;SDS011;13739;51.172;4.466;2022-09-09T16:33:43;2.42;;;0.90;;
25938;SDS011;13739;51.172;4.466;2022-09-09T16:36:10;1.58;;;0.90;;
25938;SDS011;13739;51.172;4.466;2022-09-09T16:38:37;5.45;;;1.02;;
25938;SDS011;13739;51.172;4.466;2022-09-09T16:41:03;3.67;;;1.30;;
25938;SDS011;13739;51.172;4.466;2022-09-09T16:43:30;3.95;;;1.15;;
25938;SDS011;13739;51.172;4.466;2022-09-09T16:46:00;4.10;;;1.02;;
25938;SDS011;13739;51.172;4.466;2022-09-09T16:48:30;3.63;;;1.20;;
25938;SDS011;13739;51.172;4.466;2022-09-09T16:51:04;2.25;;;1.25;;
25938;SDS011;13739;51.172;4.466;2022-09-09T16:53:32;2.67;;;1.35;;
25938;SDS011;13739;51.172;4.466;2022-09-09T16:56:08;3.92;;;1.60;;
25938;SDS011;13739;51.172;4.466;2022-09-09T16:58:37;2.40;;;1.25;;
25938;SDS011;13739;51.172;4.466;2022-09-09T17:01:03;3.72;;;1.70;;
25938;SDS011;13739;51.172;4.466;2022-09-09T17:03:30;2.42;;;1.52;;
25938;SDS011;13739;51.172;4.466;2022-09-09T17:05:57;4.10;;;1.70;;
25938;SDS011;13739;51.172;4.466;2022-09-09T17:08:23;6.97;;;2.45;;
25938;SDS011;13739;51.172;4.466;2022-09-09T17:10:49;3.92;;;1.95;;
25938;SDS011;13739;51.172;4.466;2022-09-09T17:13:15;3.67;;;1.63;;
25938;SDS011;13739;51.172;4.466;2022-09-09T17:15:44;2.50;;;1.70;;
25938;SDS011;13739;51.172;4.466;2022-09-09T17:18:11;6.45;;;1.77;;
25938;SDS011;13739;51.172;4.466;2022-09-09T17:20:37;3.25;;;1.90;;
25938;SDS011;13739;51.172;4.466;2022-09-09T17:23:04;2.45;;;1.70;;
25938;SDS011;13739;51.172;4.466;2022-09-09T17:25:31;6.20;;;2.17;;
25938;SDS011;13739;51.172;4.466;2022-09-09T17:27:57;4.13;;;1.80;;
25938;SDS011;13739;51.172;4.466;2022-09-09T17:30:24;3.90;;;1.73;;
25938;SDS011;13739;51.172;4.466;2022-09-09T17:32:49;5.10;;;1.58;;
25938;SDS011;13739;51.172;4.466;2022-09-09T17:35:15;5.53;;;1.95;;
25938;SDS011;13739;51.172;4.466;2022-09-09T17:37:41;2.72;;;1.73;;
25938;SDS011;13739;51.172;4.466;2022-09-09T17:40:06;4.90;;;1.92;;
25938;SDS011;13739;51.172;4.466;2022-09-09T17:42:33;7.22;;;1.70;;